Time;durP1;ratioP1;P1;durP2;ratioP2;P2;SDS_P1;SDS_P2;PMS_P1;PMS_P2;Temp;Humidity;BMP_temperature;BMP_pressure;BME280_temperature;BME280_humidity;BME280_pressure;Samples;Min_cycle;Max_cycle;Signal;HPM_P1;HPM_P2
2022/05/07 00:01:50;;;;;;;9.27;7.20;;;;;;;8.43;74.27;93930.81;5047281;28;20077;-60
2022/05/07 00:04:15;;;;;;;29.60;7.93;;;;;;;8.33;74.29;93924.97;5047572;28;20025;-58
2022/05/07 00:06:41;;;;;;;10.18;6.35;;;;;;;8.32;74.31;93937.22;5043627;28;20113;-59
2022/05/07 00:09:06;;;;;;;25.17;8.20;;;;;;;8.19;74.18;93931.63;5046489;28;20070;-61
2022/05/07 00:11:32;;;;;;;11.32;6.97;;;;;;;8.07;74.29;93942.06;5047294;28;20073;-61
2022/05/07 00:13:57;;;;;;;8.57;7.05;;;;;;;8.08;74.47;93942.78;5046609;28;20049;-60
2022/05/07 00:19:07;;;;;;;7.15;6.25;;;;;;;7.98;74.16;93936.19;5047403;28;20036;-59
2022/05/07 00:21:32;;;;;;;10.48;7.47;;;;;;;7.98;74.00;93930.69;5047428;28;20025;-60
2022/05/07 00:23:57;;;;;;;9.75;6.72;;;;;;;8.04;73.90;93934.09;5047118;28;20505;-60
2022/05/07 00:26:23;;;;;;;8.50;5.88;;;;;;;8.09;73.95;93939.53;5047294;28;20029;-60
2022/05/07 00:28:48;;;;;;;8.02;6.40;;;;;;;7.86;74.39;93929.34;5047329;28;20085;-60
2022/05/07 00:31:14;;;;;;;9.75;6.78;;;;;;;7.56;76.08;93938.44;5047007;28;20409;-60
2022/05/07 00:33:39;;;;;;;12.13;7.35;;;;;;;7.53;76.06;93939.50;5046092;28;20110;-60
2022/05/07 00:36:05;;;;;;;8.50;6.35;;;;;;;7.67;76.17;93936.84;5047128;28;20026;-60
2022/05/07 00:38:30;;;;;;;17.23;8.80;;;;;;;7.73;76.11;93938.25;5050032;28;20085;-60
2022/05/07 00:40:56;;;;;;;9.38;7.07;;;;;;;7.60;76.28;93932.66;5048582;28;20028;-60
2022/05/07 00:43:22;;;;;;;8.68;6.78;;;;;;;7.31;76.17;93939.72;5050488;28;20025;-60
2022/05/07 00:45:48;;;;;;;8.63;6.18;;;;;;;7.38;76.41;93936.41;5050169;28;20028;-61
2022/05/07 00:48:14;;;;;;;7.72;5.68;;;;;;;7.45;75.07;93935.81;5050471;28;20021;-61
2022/05/07 00:53:24;;;;;;;24.63;16.25;;;;;;;7.49;74.02;93936.25;5049435;28;20032;-59
2022/05/07 00:55:51;;;;;;;13.52;7.47;;;;;;;7.57;73.89;93947.44;5050469;28;20009;-61
2022/05/07 00:58:17;;;;;;;12.13;7.78;;;;;;;7.50;74.31;93942.50;5050134;28;20025;-61
2022/05/07 01:00:46;;;;;;;14.55;8.65;;;;;;;7.36;74.42;93930.66;5050473;28;20063;-61
2022/05/07 01:03:11;;;;;;;15.88;9.88;;;;;;;7.23;74.63;93933.31;5050413;28;20017;-61
2022/05/07 01:05:39;;;;;;;13.30;9.30;;;;;;;7.25;74.99;93936.31;5050257;28;20167;-61
2022/05/07 01:08:06;;;;;;;20.63;10.50;;;;;;;7.18;75.22;93927.88;5049988;28;20032;-61
2022/05/07 01:10:32;;;;;;;14.85;10.00;;;;;;;7.09;75.48;93939.94;5050064;28;20073;-61
2022/05/07 01:12:57;;;;;;;16.85;9.52;;;;;;;6.80;76.17;93930.47;5049592;28;20085;-61
2022/05/07 01:15:25;;;;;;;19.70;9.15;;;;;;;6.98;76.25;93931.81;5049802;28;20044;-61
2022/05/07 01:17:50;;;;;;;13.68;9.02;;;;;;;6.99;75.83;93933.31;5050179;28;20486;-61
2022/05/07 01:20:16;;;;;;;12.57;8.52;;;;;;;6.94;75.29;93914.88;5049749;28;20082;-61
2022/05/07 01:22:42;;;;;;;15.18;8.70;;;;;;;7.04;75.58;93929.03;5050069;28;20032;-61
2022/05/07 01:25:07;;;;;;;15.68;8.35;;;;;;;6.91;75.35;93912.44;5049968;28;20410;-60
2022/05/07 01:27:33;;;;;;;13.77;8.40;;;;;;;6.84;75.28;93930.22;5050044;28;20021;-61
2022/05/07 01:29:58;;;;;;;10.20;7.95;;;;;;;6.82;75.02;93927.25;5049698;28;20581;-60
2022/05/07 01:32:24;;;;;;;14.20;10.82;;;;;;;6.76;75.13;93930.03;5050002;28;20024;-60
2022/05/07 01:34:51;;;;;;;11.35;7.22;;;;;;;6.55;75.25;93923.47;5049640;28;20469;-60
2022/05/07 01:37:18;;;;;;;13.65;9.63;;;;;;;6.61;75.38;93926.16;5049865;28;20158;-61
2022/05/07 01:39:43;;;;;;;14.73;9.60;;;;;;;6.46;75.42;93920.28;5049538;28;20036;-60
2022/05/07 01:42:09;;;;;;;14.15;10.20;;;;;;;6.44;75.85;93920.81;5045896;28;20051;-59
2022/05/07 01:44:34;;;;;;;13.38;8.18;;;;;;;6.38;75.57;93924.84;5029429;28;20029;-59
2022/05/07 01:49:44;;;;;;;11.25;5.80;;;;;;;6.37;75.68;93926.09;5028986;28;20032;-59
2022/05/07 01:52:10;;;;;;;7.38;5.82;;;;;;;6.13;75.81;93929.50;5029440;28;20025;-59
2022/05/07 01:54:35;;;;;;;8.90;5.30;;;;;;;6.22;76.18;93931.94;5029720;28;20105;-59
2022/05/07 01:57:01;;;;;;;9.13;5.75;;;;;;;6.20;76.73;93928.97;5029369;28;20104;-60
2022/05/07 01:59:26;;;;;;;9.40;5.75;;;;;;;6.29;75.65;93931.41;5029669;28;20025;-59
2022/05/07 02:01:52;;;;;;;6.55;5.35;;;;;;;6.31;75.07;93925.38;5029307;28;20253;-59
2022/05/07 02:04:17;;;;;;;23.17;11.43;;;;;;;6.23;75.51;93927.94;5029499;28;20078;-59
2022/05/07 02:06:43;;;;;;;10.20;7.30;;;;;;;6.20;75.78;93925.47;5029487;28;20021;-59
2022/05/07 02:09:08;;;;;;;11.73;7.03;;;;;;;6.26;74.91;93923.44;5029188;28;20474;-59
2022/05/07 02:11:33;;;;;;;12.70;6.57;;;;;;;6.32;74.21;93929.63;5029188;28;20029;-59
2022/05/07 02:13:59;;;;;;;13.70;8.18;;;;;;;6.27;74.56;93928.41;5028762;28;20049;-59
2022/05/07 02:16:24;;;;;;;21.48;11.07;;;;;;;6.11;74.56;93921.03;5029393;28;20009;-59
2022/05/07 02:18:50;;;;;;;16.48;10.38;;;;;;;6.05;76.01;93929.31;5029097;28;20502;-59
2022/05/07 02:21:15;;;;;;;26.60;11.18;;;;;;;5.93;75.97;93927.16;5028986;28;20544;-59
2022/05/07 02:23:41;;;;;;;16.13;9.43;;;;;;;5.77;76.63;93928.69;5029240;28;20025;-59
2022/05/07 02:26:06;;;;;;;8.50;6.00;;;;;;;5.94;75.93;93928.63;5029086;28;20055;-56
2022/05/07 02:28:31;;;;;;;14.52;8.30;;;;;;;5.96;75.48;93932.34;5028880;28;20021;-59
2022/05/07 02:30:57;;;;;;;15.88;8.25;;;;;;;5.80;75.85;93929.69;5028872;28;20032;-60
2022/05/07 02:33:22;;;;;;;14.23;8.13;;;;;;;5.74;76.84;93926.22;5028819;28;20026;-60
2022/05/07 02:35:48;;;;;;;10.00;6.95;;;;;;;5.56;77.37;93924.81;5029027;28;20022;-60
2022/05/07 02:38:14;;;;;;;11.10;7.25;;;;;;;5.48;76.68;93882.75;5031051;28;20234;-60
2022/05/07 02:43:23;;;;;;;13.15;5.45;;;;;;;5.54;76.08;93929.28;5048990;28;20040;-60
2022/05/07 02:45:49;;;;;;;9.60;6.35;;;;;;;5.48;75.35;93926.56;5048633;28;20029;-60
2022/05/07 02:48:14;;;;;;;11.60;6.07;;;;;;;5.48;75.43;93923.09;5048606;28;20061;-60
2022/05/07 02:50:39;;;;;;;10.68;7.07;;;;;;;5.48;76.01;93921.09;5048357;28;20017;-60
2022/05/07 02:53:05;;;;;;;10.15;6.70;;;;;;;5.42;76.16;93919.63;5048700;28;20062;-60
2022/05/07 02:55:30;;;;;;;9.18;6.95;;;;;;;5.35;76.13;93931.84;5048340;28;20017;-60
2022/05/07 02:57:56;;;;;;;9.82;5.32;;;;;;;5.24;76.12;93932.63;5048651;28;20527;-60
2022/05/07 03:00:21;;;;;;;11.15;6.43;;;;;;;5.26;76.32;93932.16;5048319;28;20486;-61
2022/05/07 03:02:47;;;;;;;10.38;5.65;;;;;;;5.28;76.40;93933.09;5048520;28;20025;-60
2022/05/07 03:05:12;;;;;;;10.57;6.25;;;;;;;5.25;75.95;93931.41;5048172;28;20425;-60
2022/05/07 03:07:38;;;;;;;10.57;5.55;;;;;;;5.31;76.56;93932.13;5047451;28;20034;-60
2022/05/07 03:10:04;;;;;;;6.30;4.72;;;;;;;5.25;75.66;93931.41;5048206;28;20200;-60
2022/05/07 03:12:30;;;;;;;12.95;6.60;;;;;;;5.20;75.93;93934.13;5041055;28;20067;-58
2022/05/07 03:14:55;;;;;;;7.05;6.03;;;;;;;5.33;75.46;93935.09;5028009;28;20049;-57
2022/05/07 03:17:23;;;;;;;8.60;5.63;;;;;;;5.22;75.67;93926.91;5028156;28;20018;-58
2022/05/07 03:19:48;;;;;;;8.77;6.88;;;;;;;5.34;74.77;93930.38;5045546;28;20029;-58
2022/05/07 03:22:13;;;;;;;12.50;7.25;;;;;;;5.30;75.15;93927.16;5047996;28;20482;-58
2022/05/07 03:24:40;;;;;;;11.23;6.63;;;;;;;5.20;75.24;93932.16;5047793;28;20029;-58
2022/05/07 03:27:06;;;;;;;11.23;7.28;;;;;;;5.08;75.96;93927.22;5048191;28;20020;-58
2022/05/07 03:29:31;;;;;;;9.77;7.15;;;;;;;5.25;75.50;93930.63;5048179;28;20508;-58
2022/05/07 03:31:56;;;;;;;10.48;7.00;;;;;;;5.35;74.37;93927.13;5047782;28;20033;-58
2022/05/07 03:34:22;;;;;;;10.85;7.22;;;;;;;5.46;74.43;93931.81;5046474;28;20055;-58
2022/05/07 03:36:47;;;;;;;11.27;6.95;;;;;;;5.42;75.02;93939.53;5028067;28;20047;-58
2022/05/07 03:39:13;;;;;;;19.58;7.25;;;;;;;5.24;75.41;93940.84;5028088;28;20099;-58
2022/05/07 03:41:39;;;;;;;12.93;6.45;;;;;;;5.02;75.82;93934.69;5027740;28;20030;-58
2022/05/07 03:44:04;;;;;;;29.58;15.40;;;;;;;4.80;76.40;93907.38;5032904;28;20082;-58
2022/05/07 03:46:30;;;;;;;25.90;15.70;;;;;;;4.95;76.43;93941.41;5047847;28;20017;-58
2022/05/07 03:48:55;;;;;;;24.33;15.60;;;;;;;5.12;75.98;93938.63;5047919;28;20021;-58
2022/05/07 03:51:21;;;;;;;23.45;17.75;;;;;;;5.14;76.27;93939.63;5047521;28;20024;-58
2022/05/07 03:53:46;;;;;;;20.35;16.23;;;;;;;5.24;75.58;93945.59;5046780;28;20050;-58
2022/05/07 03:56:12;;;;;;;31.23;17.55;;;;;;;5.23;75.36;93944.84;5047400;28;20064;-58
2022/05/07 03:58:37;;;;;;;23.30;13.73;;;;;;;5.15;74.79;93937.66;5047732;28;20021;-58
2022/05/07 04:01:03;;;;;;;35.80;19.15;;;;;;;5.25;74.12;93947.81;5047055;28;20025;-58
2022/05/07 04:03:29;;;;;;;35.63;20.63;;;;;;;5.27;75.03;93944.56;5027770;28;20123;-59
2022/05/07 04:05:56;;;;;;;23.08;14.35;;;;;;;5.41;74.88;93942.78;5026249;28;20033;-59
2022/05/07 04:08:23;;;;;;;33.08;15.45;;;;;;;5.43;74.14;93946.53;5027748;28;20112;-59
2022/05/07 04:10:48;;;;;;;28.67;16.33;;;;;;;5.45;74.94;93949.50;5027636;28;20028;-60
2022/05/07 04:13:15;;;;;;;27.05;14.80;;;;;;;5.35;75.56;93943.53;5026456;28;20029;-57
2022/05/07 04:15:43;;;;;;;24.02;15.82;;;;;;;5.53;75.60;93949.72;5027543;28;20434;-57
2022/05/07 04:18:09;;;;;;;24.98;13.48;;;;;;;5.33;76.68;93943.31;5027651;28;20029;-59
2022/05/07 04:20:35;;;;;;;23.52;12.98;;;;;;;5.45;75.94;93946.75;5037241;28;20028;-59
2022/05/07 04:23:00;;;;;;;21.15;12.85;;;;;;;5.62;75.10;93943.94;5047364;28;20109;-60
2022/05/07 04:25:26;;;;;;;28.67;13.93;;;;;;;5.56;75.63;93951.44;5045357;28;20486;-60
2022/05/07 04:27:53;;;;;;;27.92;15.65;;;;;;;5.66;75.54;93945.19;5046903;28;20021;-60
2022/05/07 04:30:19;;;;;;;23.92;12.15;;;;;;;5.79;75.07;93947.34;5046957;28;20070;-60
2022/05/07 04:32:45;;;;;;;19.48;11.00;;;;;;;5.89;75.18;93952.06;5028205;28;20061;-60
2022/05/07 04:35:10;;;;;;;23.75;11.95;;;;;;;5.87;75.48;93951.81;5027075;28;20423;-60
2022/05/07 04:37:36;;;;;;;16.73;11.73;;;;;;;6.14;74.69;93961.16;5027295;28;20021;-60
2022/05/07 04:40:02;;;;;;;21.52;14.40;;;;;;;6.24;74.25;93967.09;5027044;28;20025;-60
2022/05/07 04:42:27;;;;;;;23.60;13.30;;;;;;;6.49;74.42;93950.22;5027030;28;20033;-60
2022/05/07 04:44:53;;;;;;;25.13;13.73;;;;;;;6.96;72.99;93945.31;5041257;28;20104;-61
2022/05/07 04:47:18;;;;;;;26.15;15.63;;;;;;;7.51;69.37;93963.97;5043893;28;20017;-61
2022/05/07 04:49:43;;;;;;;23.63;14.85;;;;;;;7.94;68.24;93954.97;5032647;28;20453;-61
2022/05/07 04:52:10;;;;;;;24.10;14.43;;;;;;;8.33;66.64;93933.97;5027032;28;20490;-58
2022/05/07 04:54:35;;;;;;;22.08;14.13;;;;;;;8.61;65.11;93961.06;5026842;28;20033;-58
2022/05/07 04:57:02;;;;;;;31.42;17.20;;;;;;;9.08;64.73;93959.28;5027000;28;20022;-55
2022/05/07 04:59:28;;;;;;;28.73;15.88;;;;;;;9.50;63.90;93965.06;5026691;28;20109;-55
2022/05/07 05:01:53;;;;;;;22.42;13.93;;;;;;;9.97;62.95;93956.88;5039364;28;20099;-56
2022/05/07 05:04:18;;;;;;;14.63;9.85;;;;;;;10.26;61.05;93959.31;5043638;28;20383;-55
2022/05/07 05:06:44;;;;;;;10.82;7.40;;;;;;;10.40;61.09;93966.28;5035624;28;20090;-55
2022/05/07 05:09:12;;;;;;;9.48;5.80;;;;;;;10.93;59.28;93955.78;5037305;28;20405;-56
2022/05/07 05:11:38;;;;;;;4.97;3.67;;;;;;;11.37;58.01;93959.44;5036244;28;20079;-56
2022/05/07 05:15:01;;;;;;;7.00;5.10;;;;;;;11.78;57.44;93947.59;5036378;28;20041;-56
2022/05/07 05:16:52;;;;;;;9.27;4.95;;;;;;;12.31;56.06;93962.44;5036922;28;20025;-57
2022/05/07 05:19:18;;;;;;;5.22;3.88;;;;;;;12.45;54.80;93961.00;5036174;28;20021;-56
2022/05/07 05:21:44;;;;;;;7.38;4.10;;;;;;;12.49;55.50;93952.34;5035210;28;20518;-57
2022/05/07 05:24:10;;;;;;;4.28;3.67;;;;;;;12.84;54.56;93954.28;5037973;28;20024;-59
2022/05/07 05:26:35;;;;;;;5.03;4.15;;;;;;;13.45;53.30;93950.28;5038763;28;20458;-59
2022/05/07 05:29:01;;;;;;;5.05;3.70;;;;;;;14.21;52.78;93950.13;5041352;28;20170;-59
2022/05/07 05:31:28;;;;;;;4.45;3.40;;;;;;;14.76;49.25;93952.91;5043445;28;20025;-61
2022/05/07 05:33:54;;;;;;;6.72;3.67;;;;;;;15.18;48.93;93940.56;5048758;28;20044;-61
2022/05/07 05:36:20;;;;;;;6.57;3.38;;;;;;;16.03;47.64;93939.31;5049895;28;20017;-58
2022/05/07 05:38:45;;;;;;;9.48;6.10;;;;;;;16.74;46.16;93948.53;5049917;28;20025;-58
2022/05/07 05:41:11;;;;;;;6.43;4.68;;;;;;;17.10;43.86;93956.97;5049521;28;20513;-58
2022/05/07 05:43:38;;;;;;;25.02;14.10;;;;;;;17.06;44.00;93948.28;5049582;28;20108;-57
2022/05/07 05:46:03;;;;;;;14.82;9.07;;;;;;;17.12;44.54;93956.38;5049684;28;20096;-56
2022/05/07 05:48:29;;;;;;;10.00;5.05;;;;;;;17.21;44.12;93956.44;5048691;28;20581;-53
2022/05/07 05:50:55;;;;;;;12.93;7.65;;;;;;;17.00;44.29;93950.59;5049400;28;20040;-56
2022/05/07 05:53:21;;;;;;;26.83;13.63;;;;;;;17.12;43.71;93954.34;5049630;28;20024;-58
2022/05/07 05:55:47;;;;;;;14.98;7.75;;;;;;;17.13;44.35;93955.81;5049391;28;20141;-57
2022/05/07 05:58:13;;;;;;;11.15;5.95;;;;;;;16.89;43.61;93950.41;5049548;28;20071;-53
2022/05/07 06:00:38;;;;;;;15.63;5.82;;;;;;;16.56;45.20;93949.88;5047124;28;20026;-56
2022/05/07 06:03:04;;;;;;;13.68;6.30;;;;;;;16.19;47.00;93951.03;5049509;28;20035;-56
2022/05/07 06:05:30;;;;;;;14.35;4.70;;;;;;;15.58;43.87;93954.41;5049456;27;20538;-57
2022/05/07 06:07:55;;;;;;;14.25;8.35;;;;;;;15.36;44.53;93948.97;5049497;28;20405;-54
2022/05/07 06:10:21;;;;;;;4.07;2.85;;;;;;;14.76;45.20;93950.84;5049360;28;20058;-57
2022/05/07 06:12:46;;;;;;;4.47;3.00;;;;;;;14.80;45.92;93940.09;5039870;28;20498;-54
2022/05/07 06:15:12;;;;;;;12.43;3.88;;;;;;;15.31;43.48;93947.19;5028951;28;20046;-56
2022/05/07 06:17:37;;;;;;;6.38;3.45;;;;;;;15.69;44.58;93945.59;5029393;28;20112;-53
2022/05/07 06:20:04;;;;;;;3.92;3.10;;;;;;;16.18;42.84;93943.97;5029312;28;20120;-56
2022/05/07 06:22:29;;;;;;;5.57;2.90;;;;;;;16.56;43.70;93947.09;5029027;28;20025;-55
2022/05/07 06:27:39;;;;;;;5.45;2.80;;;;;;;17.48;42.95;93942.44;5048397;28;20028;-54
2022/05/07 06:30:06;;;;;;;6.80;3.20;;;;;;;18.19;38.17;93940.84;5048812;28;20025;-53
2022/05/07 06:32:35;;;;;;;10.73;3.72;;;;;;;18.75;37.91;93929.56;5049027;28;20021;-56
2022/05/07 06:35:03;;;;;;;4.20;2.85;;;;;;;19.45;36.84;93925.38;5046657;28;20048;-58
2022/05/07 06:37:30;;;;;;;4.03;2.30;;;;;;;19.52;33.25;93930.06;5046109;28;20021;-57
2022/05/07 06:39:56;;;;;;;6.70;2.65;;;;;;;19.50;33.72;93932.75;5048677;28;20032;-58
2022/05/07 06:42:21;;;;;;;3.65;2.53;;;;;;;19.24;33.67;93936.50;5048619;28;20021;-58
2022/05/07 06:44:47;;;;;;;3.08;2.50;;;;;;;18.42;33.68;93920.88;5047654;28;20025;-57
2022/05/07 06:47:12;;;;;;;4.38;2.50;;;;;;;18.15;35.70;93921.00;5039728;28;20034;-57
2022/05/07 06:49:38;;;;;;;5.07;2.50;;;;;;;17.77;34.86;93925.81;5042570;28;20095;-57
2022/05/07 06:52:04;;;;;;;2.75;2.50;;;;;;;17.78;36.67;93925.22;5048713;28;20029;-57
2022/05/07 06:54:29;;;;;;;5.85;2.58;;;;;;;18.12;35.37;93925.00;5048453;28;20518;-58
2022/05/07 06:56:55;;;;;;;4.68;2.28;;;;;;;18.36;34.69;93919.69;5045171;28;20028;-57
2022/05/07 06:59:21;;;;;;;5.63;2.65;;;;;;;18.26;34.78;93930.16;5046615;28;20063;-58
2022/05/07 07:01:47;;;;;;;4.45;2.97;;;;;;;17.85;34.80;93915.97;5046677;28;20081;-58
2022/05/07 07:04:13;;;;;;;2.97;2.47;;;;;;;17.98;36.19;93917.59;5045275;28;20056;-58
2022/05/07 07:06:38;;;;;;;3.40;2.08;;;;;;;18.02;33.82;93912.31;5044614;28;20545;-58
2022/05/07 07:09:04;;;;;;;3.17;2.33;;;;;;;18.05;34.93;93916.72;5043549;28;20037;-58
2022/05/07 07:11:30;;;;;;;6.00;2.50;;;;;;;18.05;34.16;93919.53;5044659;28;20120;-58
2022/05/07 07:13:56;;;;;;;8.48;2.47;;;;;;;18.64;34.07;93914.09;5034873;27;20124;-57
2022/05/07 07:16:22;;;;;;;3.08;2.15;;;;;;;19.24;33.39;93912.03;5028799;28;20571;-58
2022/05/07 07:18:47;;;;;;;8.23;2.63;;;;;;;19.83;31.84;93914.00;5024566;28;20068;-57
2022/05/07 07:21:14;;;;;;;4.00;2.38;;;;;;;20.53;31.81;93917.94;5041569;28;20040;-57
2022/05/07 07:23:39;;;;;;;5.03;2.35;;;;;;;20.55;30.92;93914.53;5045824;28;20021;-57
2022/05/07 07:26:05;;;;;;;4.63;2.20;;;;;;;21.59;30.32;93918.31;5045845;28;20032;-57
2022/05/07 07:28:31;;;;;;;3.55;1.90;;;;;;;22.73;28.08;93912.41;5046093;28;20017;-58
2022/05/07 07:30:57;;;;;;;4.53;2.03;;;;;;;23.50;26.16;93911.03;5045428;28;20112;-57
2022/05/07 07:33:23;;;;;;;2.47;1.95;;;;;;;24.28;24.58;93898.22;5045644;28;20386;-58
2022/05/07 07:35:48;;;;;;;3.50;2.10;;;;;;;24.05;25.49;93904.09;5045715;28;20050;-56
2022/05/07 07:38:14;;;;;;;8.20;2.25;;;;;;;24.22;25.50;93902.81;5045357;28;20497;-57
2022/05/07 07:40:40;;;;;;;9.73;2.08;;;;;;;24.27;24.90;93902.41;5045551;28;20025;-57
2022/05/07 07:43:06;;;;;;;2.25;1.88;;;;;;;24.47;24.67;93909.03;5045492;28;20029;-57
2022/05/07 07:48:15;;;;;;;3.28;1.83;;;;;;;24.97;25.13;93910.81;5044823;28;20032;-57
2022/05/07 07:50:41;;;;;;;4.55;2.25;;;;;;;25.28;24.15;93915.81;5045351;28;20029;-56
2022/05/07 07:53:09;;;;;;;3.30;1.75;;;;;;;25.52;23.93;93916.97;5045549;28;20058;-59
2022/05/07 07:55:36;;;;;;;2.20;1.90;;;;;;;26.28;22.93;93914.75;5045580;28;20470;-58
2022/05/07 07:58:07;;;;;;;4.05;2.15;;;;;;;26.72;22.92;93906.69;5044597;28;20025;-59
2022/05/07 08:00:35;;;;;;;5.13;2.00;;;;;;;26.75;21.54;93908.22;5031991;28;20021;-59
2022/05/07 08:03:03;;;;;;;3.60;1.92;;;;;;;26.73;23.35;93914.56;5026795;28;20044;-59
2022/05/07 08:05:30;;;;;;;3.35;2.53;;;;;;;27.32;21.52;93905.56;5033936;28;20068;-59
2022/05/07 08:13:24;;;;;;;6.28;2.45;;;;;;;29.45;20.16;93903.91;5040847;28;20036;-57
2022/05/07 08:15:52;;;;;;;3.13;2.28;;;;;;;30.26;20.89;93904.91;5032101;28;20052;-55
2022/05/07 08:18:19;;;;;;;3.33;1.85;;;;;;;28.94;20.15;93904.38;5045763;28;20452;-57
2022/05/07 08:20:45;;;;;;;3.28;2.00;;;;;;;29.28;18.71;93902.69;5047110;28;20041;-58
2022/05/07 08:23:11;;;;;;;3.08;1.98;;;;;;;28.61;19.46;93901.88;5046009;28;20029;-58
2022/05/07 08:25:37;;;;;;;4.88;2.42;;;;;;;27.05;20.56;93912.28;5025033;28;20112;-58
2022/05/07 08:28:03;;;;;;;5.55;2.00;;;;;;;25.42;22.34;93908.75;5042603;28;20409;-57
2022/05/07 08:30:29;;;;;;;4.47;2.35;;;;;;;25.02;24.03;93908.91;5044943;28;20025;-57
2022/05/07 08:32:55;;;;;;;5.80;2.70;;;;;;;24.63;25.90;93911.94;5044924;28;20043;-58
2022/05/07 08:35:21;;;;;;;2.72;2.30;;;;;;;24.28;25.79;93915.16;5044871;28;20025;-57
2022/05/07 08:37:46;;;;;;;2.90;2.20;;;;;;;23.80;26.13;93910.53;5044960;28;20025;-57
2022/05/07 08:40:16;;;;;;;3.55;2.13;;;;;;;23.00;26.37;93914.63;5044732;28;20498;-57
2022/05/07 08:42:43;;;;;;;3.85;2.42;;;;;;;23.86;25.58;93907.31;5044940;28;20434;-57
2022/05/07 08:45:09;;;;;;;4.80;2.42;;;;;;;24.94;25.76;93906.44;5044421;28;20526;-58
2022/05/07 08:47:35;;;;;;;4.32;2.40;;;;;;;24.45;24.28;93902.59;5044764;28;20028;-57
2022/05/07 08:50:00;;;;;;;5.70;2.53;;;;;;;25.43;25.97;93906.66;5044623;28;20520;-57
2022/05/07 08:52:27;;;;;;;13.85;2.83;;;;;;;26.97;24.62;93907.03;5044747;28;20021;-57
2022/05/07 08:54:53;;;;;;;2.75;2.15;;;;;;;27.22;22.28;93896.66;5044431;28;20800;-58
2022/05/07 08:57:18;;;;;;;4.75;2.30;;;;;;;28.32;21.25;93900.84;5043619;28;20128;-58
2022/05/07 08:59:44;;;;;;;3.58;2.05;;;;;;;28.22;20.63;93896.94;5047972;28;20421;-57
2022/05/07 09:02:10;;;;;;;5.57;2.40;;;;;;;28.23;20.33;93896.28;5047880;28;20035;-58
2022/05/07 09:04:39;;;;;;;3.55;2.13;;;;;;;28.66;20.51;93897.75;5048089;28;20520;-58
2022/05/07 09:07:05;;;;;;;3.80;1.92;;;;;;;29.49;18.72;93901.91;5047763;28;20041;-58
2022/05/07 09:09:31;;;;;;;2.00;1.80;;;;;;;29.03;19.87;93889.78;5033786;28;20081;-58
2022/05/07 09:11:58;;;;;;;4.20;2.35;;;;;;;28.29;20.42;93892.91;5031458;28;20056;-58
2022/05/07 09:14:31;;;;;;;6.30;2.20;;;;;;;28.01;21.55;93906.81;5049927;28;20041;-57
2022/05/07 09:17:00;;;;;;;2.88;2.00;;;;;;;27.48;20.65;93894.88;5048768;28;20093;-58
2022/05/07 09:19:30;;;;;;;4.03;2.03;;;;;;;27.26;21.02;93891.16;5050010;28;20035;-59
2022/05/07 09:22:10;;;;;;;2.67;1.85;;;;;;;27.38;21.41;93891.63;5049941;28;20029;-58
2022/05/07 09:24:37;;;;;;;2.67;1.83;;;;;;;27.76;20.55;93888.13;5049971;28;20025;-58
2022/05/07 09:27:06;;;;;;;4.93;2.17;;;;;;;27.58;20.66;93890.31;5049648;28;20125;-57
2022/05/07 09:29:33;;;;;;;4.10;2.30;;;;;;;27.49;20.21;93888.56;5039183;28;20059;-57
2022/05/07 09:32:09;;;;;;;5.63;2.28;;;;;;;27.75;21.59;93881.03;5033164;28;20093;-57
2022/05/07 09:37:36;;;;;;;3.20;2.17;;;;;;;27.13;20.95;93886.38;5033263;28;20024;-58
2022/05/07 09:40:07;;;;;;;12.48;2.30;;;;;;;27.18;21.20;93888.00;5035007;28;20037;-58
2022/05/07 09:42:33;;;;;;;3.00;2.00;;;;;;;26.81;21.73;93871.66;5049849;28;20430;-58
2022/05/07 09:45:03;;;;;;;4.43;2.20;;;;;;;26.36;21.02;93888.16;5037893;28;20037;-58
2022/05/07 09:47:30;;;;;;;2.63;1.92;;;;;;;25.99;21.35;93880.19;5046421;28;20688;-58
2022/05/07 09:57:30;;;;;;;8.90;2.63;;;;;;;25.02;22.92;93875.75;5049740;28;20047;-60
2022/05/07 09:58:18;;;;;;;6.32;2.88;;;;;;;23.38;26.08;93885.00;5049650;28;20100;-59
2022/05/07 10:00:58;;;;;;;4.00;2.42;;;;;;;23.03;25.32;93885.19;5049268;28;20025;-60
2022/05/07 10:03:29;;;;;;;5.55;2.30;;;;;;;23.34;25.69;93874.25;5047869;28;20157;-60
2022/05/07 10:06:19;;;;;;;3.85;2.13;;;;;;;23.74;24.72;93890.47;5048295;28;20037;-60
2022/05/07 10:09:06;;;;;;;3.72;2.53;;;;;;;23.65;25.51;93887.88;5042789;28;20029;-60
2022/05/07 10:11:33;;;;;;;3.65;2.30;;;;;;;23.81;25.43;93880.97;5027407;28;20037;-60
2022/05/07 10:13:58;;;;;;;2.65;2.22;;;;;;;23.86;24.68;93870.66;5028656;28;20511;-60
2022/05/07 10:16:29;;;;;;;8.50;2.88;;;;;;;24.20;26.12;93871.69;5032260;28;20028;-60
2022/05/07 10:18:55;;;;;;;3.47;2.30;;;;;;;24.27;25.94;93864.97;5041785;28;20040;-61
2022/05/07 10:21:21;;;;;;;4.53;2.28;;;;;;;24.66;23.74;93865.50;5032642;28;20033;-60
2022/05/07 10:23:57;;;;;;;2.72;2.08;;;;;;;23.99;25.20;93867.81;5041068;28;20025;-60
2022/05/07 10:26:45;;;;;;;3.88;2.35;;;;;;;24.02;24.22;93860.19;5044827;28;20033;-59
2022/05/07 10:29:24;;;;;;;7.45;2.40;;;;;;;23.92;24.94;93848.38;5046167;28;20173;-60
2022/05/07 10:31:50;;;;;;;;;;;;;;;23.78;24.92;93856.84;5043194;28;20521;-59
2022/05/07 10:34:26;;;;;;;3.05;2.30;;;;;;;22.97;27.44;93853.91;5047653;28;20031;-60
2022/05/07 10:37:05;;;;;;;5.43;2.45;;;;;;;23.18;26.53;93851.56;5047645;28;20037;-59
2022/05/07 10:39:31;;;;;;;4.55;2.28;;;;;;;23.80;26.47;93840.03;5047601;28;20104;-59
2022/05/07 10:41:58;;;;;;;2.88;2.13;;;;;;;23.78;25.54;93842.75;5047421;28;20074;-59
2022/05/07 10:44:33;;;;;;;6.32;2.58;;;;;;;23.94;25.80;93846.41;5047207;28;20037;-59
2022/05/07 10:47:13;;;;;;;2.35;2.10;;;;;;;23.73;25.41;93838.28;5047044;28;20025;-60
2022/05/07 10:50:13;;;;;;;3.78;2.78;;;;;;;22.84;26.77;93834.88;5047193;28;20085;-60
2022/05/07 10:52:39;;;;;;;4.85;2.78;;;;;;;23.07;29.84;93840.34;5041386;28;20425;-60
2022/05/07 10:55:08;;;;;;;4.88;2.50;;;;;;;23.80;27.74;93825.94;5039632;28;20068;-59
2022/05/07 10:57:45;;;;;;;4.53;2.35;;;;;;;24.53;28.13;93827.50;5030899;28;20029;-60
2022/05/07 11:00:13;;;;;;;6.57;2.22;;;;;;;24.73;25.48;93831.28;5031870;28;20044;-58
2022/05/07 11:02:38;;;;;;;5.00;2.35;;;;;;;24.45;26.43;93826.38;5033700;28;20056;-58
2022/05/07 11:05:04;;;;;;;3.97;2.88;;;;;;;24.77;25.65;93825.88;5046686;28;20113;-59
2022/05/07 11:07:30;;;;;;;7.30;2.70;;;;;;;24.65;25.97;93819.59;5046195;28;20416;-58
2022/05/07 11:09:56;;;;;;;3.45;2.70;;;;;;;24.33;27.31;93800.38;5047129;28;20029;-59
2022/05/07 11:12:22;;;;;;;5.15;2.70;;;;;;;23.71;26.87;93826.16;5040832;28;20045;-59
2022/05/07 11:14:48;;;;;;;4.50;2.70;;;;;;;24.31;27.19;93817.22;5026748;28;20054;-59
2022/05/07 11:17:17;;;;;;;6.70;2.42;;;;;;;24.37;27.61;93806.94;5026820;28;20040;-58
2022/05/07 11:19:42;;;;;;;;;;;;;;;24.33;26.62;93806.00;5027415;28;20541;-60
2022/05/07 11:22:08;;;;;;;4.88;2.80;;;;;;;24.51;28.78;93812.56;5025631;28;19913;-59
2022/05/07 11:24:34;;;;;;;4.38;2.50;;;;;;;24.83;26.38;93814.09;5042766;28;20028;-59
2022/05/07 11:27:02;;;;;;;2.88;2.60;;;;;;;24.79;27.54;93791.34;5046919;28;20033;-59
2022/05/07 11:29:29;;;;;;;3.42;2.50;;;;;;;24.61;26.58;93807.38;5046123;28;20025;-60
2022/05/07 11:32:00;;;;;;;4.55;2.58;;;;;;;24.03;27.81;93810.88;5037820;28;20104;-58
2022/05/07 11:34:37;;;;;;;3.70;2.67;;;;;;;23.67;27.69;93809.75;5026810;28;20082;-59
2022/05/07 11:37:10;;;;;;;3.08;2.25;;;;;;;22.91;28.76;93797.25;5026552;28;20086;-58
2022/05/07 11:39:55;;;;;;;2.80;2.42;;;;;;;22.85;29.66;93794.13;5026863;28;20051;-59
2022/05/07 11:42:32;;;;;;;3.90;3.17;;;;;;;22.73;29.35;93797.00;5040216;28;20081;-59
2022/05/07 11:48:05;;;;;;;4.50;2.72;;;;;;;22.33;30.86;93783.47;5046428;28;20581;-59
2022/05/07 11:50:33;;;;;;;2.88;2.67;;;;;;;22.55;31.26;93782.63;5040045;28;20727;-59
2022/05/07 11:53:20;;;;;;;3.67;2.45;;;;;;;21.94;30.55;93791.81;5046199;28;20062;-58
2022/05/07 11:55:47;;;;;;;3.33;2.55;;;;;;;22.02;32.44;93791.56;5046264;28;20029;-58
2022/05/07 11:58:13;;;;;;;5.95;2.72;;;;;;;21.85;32.36;93779.38;5039555;28;20034;-60
2022/05/07 12:00:43;;;;;;;6.15;2.90;;;;;;;22.07;33.89;93779.22;5035593;28;20085;-60
2022/05/07 12:03:09;;;;;;;3.30;2.55;;;;;;;22.15;31.51;93783.22;5038880;28;20034;-60
2022/05/07 12:05:42;;;;;;;6.60;2.97;;;;;;;22.31;31.10;93777.72;5041896;28;20029;-59